sensor_id;sensor_type;location;lat;lon;timestamp;P1;durP1;ratioP1;P2;durP2;ratioP2
12884;SDS011;6510;51.362;7.370;2023-08-21T00:01:30;0.10;;;0.10;;
12884;SDS011;6510;51.362;7.370;2023-08-21T00:03:56;0.05;;;0.05;;
12884;SDS011;6510;51.362;7.370;2023-08-21T00:06:21;0.00;;;0.00;;
12884;SDS011;6510;51.362;7.370;2023-08-21T00:08:47;0.10;;;0.10;;
12884;SDS011;6510;51.362;7.370;2023-08-21T00:11:12;0.10;;;0.10;;
12884;SDS011;6510;51.362;7.370;2023-08-21T00:13:38;0.10;;;0.10;;
12884;SDS011;6510;51.362;7.370;2023-08-21T00:16:03;0.10;;;0.10;;
12884;SDS011;6510;51.362;7.370;2023-08-21T00:18:29;0.00;;;0.00;;
12884;SDS011;6510;51.362;7.370;2023-08-21T00:20:55;0.10;;;0.10;;
12884;SDS011;6510;51.362;7.370;2023-08-21T00:23:20;0.10;;;0.10;;
12884;SDS011;6510;51.362;7.370;2023-08-21T00:25:46;0.00;;;0.00;;
12884;SDS011;6510;51.362;7.370;2023-08-21T00:28:13;0.10;;;0.10;;
12884;SDS011;6510;51.362;7.370;2023-08-21T00:30:39;0.13;;;0.13;;
12884;SDS011;6510;51.362;7.370;2023-08-21T00:33:05;0.00;;;0.00;;
12884;SDS011;6510;51.362;7.370;2023-08-21T00:35:31;0.10;;;0.10;;
12884;SDS011;6510;51.362;7.370;2023-08-21T00:37:57;0.10;;;0.10;;
12884;SDS011;6510;51.362;7.370;2023-08-21T00:40:22;0.10;;;0.10;;
12884;SDS011;6510;51.362;7.370;2023-08-21T00:42:48;0.00;;;0.00;;
12884;SDS011;6510;51.362;7.370;2023-08-21T00:45:13;0.00;;;0.00;;
12884;SDS011;6510;51.362;7.370;2023-08-21T00:47:39;0.10;;;0.10;;
12884;SDS011;6510;51.362;7.370;2023-08-21T00:50:05;0.10;;;0.10;;
12884;SDS011;6510;51.362;7.370;2023-08-21T00:52:32;0.08;;;0.08;;
12884;SDS011;6510;51.362;7.370;2023-08-21T00:55:01;0.10;;;0.10;;
12884;SDS011;6510;51.362;7.370;2023-08-21T00:57:28;0.03;;;0.03;;
12884;SDS011;6510;51.362;7.370;2023-08-21T00:59:54;0.00;;;0.00;;
12884;SDS011;6510;51.362;7.370;2023-08-21T01:02:20;0.10;;;0.10;;
12884;SDS011;6510;51.362;7.370;2023-08-21T01:04:45;0.10;;;0.10;;
12884;SDS011;6510;51.362;7.370;2023-08-21T01:07:11;0.10;;;0.10;;
12884;SDS011;6510;51.362;7.370;2023-08-21T01:12:33;0.00;;;0.00;;
12884;SDS011;6510;51.362;7.370;2023-08-21T01:15:03;0.10;;;0.10;;
12884;SDS011;6510;51.362;7.370;2023-08-21T01:17:32;0.05;;;0.05;;
12884;SDS011;6510;51.362;7.370;2023-08-21T01:20:01;0.10;;;0.10;;
12884;SDS011;6510;51.362;7.370;2023-08-21T01:22:29;0.10;;;0.10;;
12884;SDS011;6510;51.362;7.370;2023-08-21T01:25:05;0.00;;;0.00;;
12884;SDS011;6510;51.362;7.370;2023-08-21T01:27:31;0.10;;;0.10;;
12884;SDS011;6510;51.362;7.370;2023-08-21T01:30:01;0.00;;;0.00;;
12884;SDS011;6510;51.362;7.370;2023-08-21T01:35:30;0.03;;;0.03;;
12884;SDS011;6510;51.362;7.370;2023-08-21T01:37:58;0.07;;;0.07;;
12884;SDS011;6510;51.362;7.370;2023-08-21T01:40:24;0.00;;;0.00;;
12884;SDS011;6510;51.362;7.370;2023-08-21T01:42:52;0.10;;;0.10;;
12884;SDS011;6510;51.362;7.370;2023-08-21T01:45:19;0.00;;;0.00;;
12884;SDS011;6510;51.362;7.370;2023-08-21T01:47:45;0.10;;;0.10;;
12884;SDS011;6510;51.362;7.370;2023-08-21T01:50:10;0.10;;;0.10;;
12884;SDS011;6510;51.362;7.370;2023-08-21T01:52:36;0.10;;;0.10;;
12884;SDS011;6510;51.362;7.370;2023-08-21T01:55:02;0.00;;;0.00;;
12884;SDS011;6510;51.362;7.370;2023-08-21T01:57:28;0.00;;;0.00;;
12884;SDS011;6510;51.362;7.370;2023-08-21T01:59:54;0.10;;;0.10;;
12884;SDS011;6510;51.362;7.370;2023-08-21T02:02:19;0.00;;;0.00;;
12884;SDS011;6510;51.362;7.370;2023-08-21T02:04:45;0.00;;;0.00;;
12884;SDS011;6510;51.362;7.370;2023-08-21T02:07:11;0.05;;;0.05;;
12884;SDS011;6510;51.362;7.370;2023-08-21T02:09:36;0.10;;;0.10;;
12884;SDS011;6510;51.362;7.370;2023-08-21T02:12:02;0.10;;;0.10;;
12884;SDS011;6510;51.362;7.370;2023-08-21T02:14:28;0.00;;;0.00;;
12884;SDS011;6510;51.362;7.370;2023-08-21T02:16:53;0.05;;;0.05;;
12884;SDS011;6510;51.362;7.370;2023-08-21T02:19:19;0.10;;;0.10;;
12884;SDS011;6510;51.362;7.370;2023-08-21T02:21:44;0.00;;;0.00;;
12884;SDS011;6510;51.362;7.370;2023-08-21T02:24:10;0.10;;;0.10;;
12884;SDS011;6510;51.362;7.370;2023-08-21T02:26:36;0.00;;;0.00;;
12884;SDS011;6510;51.362;7.370;2023-08-21T02:29:01;0.10;;;0.10;;
12884;SDS011;6510;51.362;7.370;2023-08-21T02:31:28;0.00;;;0.00;;
12884;SDS011;6510;51.362;7.370;2023-08-21T02:33:54;0.10;;;0.10;;
12884;SDS011;6510;51.362;7.370;2023-08-21T02:36:19;0.10;;;0.10;;
12884;SDS011;6510;51.362;7.370;2023-08-21T02:38:45;0.10;;;0.10;;
12884;SDS011;6510;51.362;7.370;2023-08-21T02:41:11;0.10;;;0.10;;
12884;SDS011;6510;51.362;7.370;2023-08-21T02:43:36;0.10;;;0.10;;
12884;SDS011;6510;51.362;7.370;2023-08-21T02:46:02;0.10;;;0.10;;
12884;SDS011;6510;51.362;7.370;2023-08-21T02:48:27;0.10;;;0.10;;
12884;SDS011;6510;51.362;7.370;2023-08-21T02:50:53;0.10;;;0.10;;
12884;SDS011;6510;51.362;7.370;2023-08-21T02:53:19;0.10;;;0.10;;
12884;SDS011;6510;51.362;7.370;2023-08-21T02:55:45;0.10;;;0.10;;
12884;SDS011;6510;51.362;7.370;2023-08-21T02:58:13;0.10;;;0.10;;
12884;SDS011;6510;51.362;7.370;2023-08-21T03:00:39;0.10;;;0.10;;
12884;SDS011;6510;51.362;7.370;2023-08-21T03:03:04;0.10;;;0.10;;
12884;SDS011;6510;51.362;7.370;2023-08-21T03:05:30;0.10;;;0.10;;
12884;SDS011;6510;51.362;7.370;2023-08-21T03:07:56;0.10;;;0.10;;
12884;SDS011;6510;51.362;7.370;2023-08-21T03:10:21;0.00;;;0.00;;
12884;SDS011;6510;51.362;7.370;2023-08-21T03:12:48;0.10;;;0.10;;
12884;SDS011;6510;51.362;7.370;2023-08-21T03:15:14;0.10;;;0.10;;
12884;SDS011;6510;51.362;7.370;2023-08-21T03:17:40;0.10;;;0.10;;
12884;SDS011;6510;51.362;7.370;2023-08-21T03:20:06;0.10;;;0.10;;
12884;SDS011;6510;51.362;7.370;2023-08-21T03:22:32;0.00;;;0.00;;
12884;SDS011;6510;51.362;7.370;2023-08-21T03:24:58;0.00;;;0.00;;
12884;SDS011;6510;51.362;7.370;2023-08-21T03:27:24;0.10;;;0.10;;
12884;SDS011;6510;51.362;7.370;2023-08-21T03:29:49;0.00;;;0.00;;
12884;SDS011;6510;51.362;7.370;2023-08-21T03:32:15;0.00;;;0.00;;
12884;SDS011;6510;51.362;7.370;2023-08-21T03:34:42;0.10;;;0.10;;
12884;SDS011;6510;51.362;7.370;2023-08-21T03:37:07;0.10;;;0.10;;
12884;SDS011;6510;51.362;7.370;2023-08-21T03:39:33;0.10;;;0.10;;
12884;SDS011;6510;51.362;7.370;2023-08-21T03:41:59;0.03;;;0.03;;
12884;SDS011;6510;51.362;7.370;2023-08-21T03:44:24;0.05;;;0.05;;
12884;SDS011;6510;51.362;7.370;2023-08-21T03:46:50;0.00;;;0.00;;
12884;SDS011;6510;51.362;7.370;2023-08-21T03:49:15;0.00;;;0.00;;
12884;SDS011;6510;51.362;7.370;2023-08-21T03:51:41;0.10;;;0.10;;
12884;SDS011;6510;51.362;7.370;2023-08-21T03:54:07;0.07;;;0.07;;
12884;SDS011;6510;51.362;7.370;2023-08-21T03:56:32;0.10;;;0.10;;
12884;SDS011;6510;51.362;7.370;2023-08-21T03:58:58;0.00;;;0.00;;
12884;SDS011;6510;51.362;7.370;2023-08-21T04:01:23;0.00;;;0.00;;
12884;SDS011;6510;51.362;7.370;2023-08-21T04:03:49;0.03;;;0.03;;
12884;SDS011;6510;51.362;7.370;2023-08-21T04:06:14;0.00;;;0.00;;
12884;SDS011;6510;51.362;7.370;2023-08-21T04:08:40;0.10;;;0.10;;
12884;SDS011;6510;51.362;7.370;2023-08-21T04:11:06;0.10;;;0.10;;
12884;SDS011;6510;51.362;7.370;2023-08-21T04:13:32;0.00;;;0.00;;
12884;SDS011;6510;51.362;7.370;2023-08-21T04:15:57;0.00;;;0.00;;
12884;SDS011;6510;51.362;7.370;2023-08-21T04:18:23;0.10;;;0.10;;
12884;SDS011;6510;51.362;7.370;2023-08-21T04:20:56;0.10;;;0.10;;
12884;SDS011;6510;51.362;7.370;2023-08-21T04:23:21;0.00;;;0.00;;
12884;SDS011;6510;51.362;7.370;2023-08-21T04:25:47;0.10;;;0.10;;
12884;SDS011;6510;51.362;7.370;2023-08-21T04:28:13;0.00;;;0.00;;
12884;SDS011;6510;51.362;7.370;2023-08-21T04:30:39;0.10;;;0.10;;
12884;SDS011;6510;51.362;7.370;2023-08-21T04:33:06;0.05;;;0.05;;
12884;SDS011;6510;51.362;7.370;2023-08-21T04:35:36;0.10;;;0.10;;
12884;SDS011;6510;51.362;7.370;2023-08-21T04:38:02;0.10;;;0.10;;
12884;SDS011;6510;51.362;7.370;2023-08-21T04:40:28;0.00;;;0.00;;
12884;SDS011;6510;51.362;7.370;2023-08-21T04:42:54;0.10;;;0.10;;
12884;SDS011;6510;51.362;7.370;2023-08-21T04:45:19;0.00;;;0.00;;
12884;SDS011;6510;51.362;7.370;2023-08-21T04:47:45;0.10;;;0.10;;
12884;SDS011;6510;51.362;7.370;2023-08-21T04:50:11;0.10;;;0.10;;
12884;SDS011;6510;51.362;7.370;2023-08-21T04:52:37;0.00;;;0.00;;
12884;SDS011;6510;51.362;7.370;2023-08-21T04:55:03;0.00;;;0.00;;
12884;SDS011;6510;51.362;7.370;2023-08-21T04:57:28;0.00;;;0.00;;
12884;SDS011;6510;51.362;7.370;2023-08-21T04:59:54;0.00;;;0.00;;
12884;SDS011;6510;51.362;7.370;2023-08-21T05:02:19;0.00;;;0.00;;
12884;SDS011;6510;51.362;7.370;2023-08-21T05:04:45;0.00;;;0.00;;
12884;SDS011;6510;51.362;7.370;2023-08-21T05:07:11;0.10;;;0.10;;
12884;SDS011;6510;51.362;7.370;2023-08-21T05:09:37;0.00;;;0.00;;
12884;SDS011;6510;51.362;7.370;2023-08-21T05:12:03;0.00;;;0.00;;
12884;SDS011;6510;51.362;7.370;2023-08-21T05:14:28;0.00;;;0.00;;
12884;SDS011;6510;51.362;7.370;2023-08-21T05:16:54;0.00;;;0.00;;
12884;SDS011;6510;51.362;7.370;2023-08-21T05:19:20;0.10;;;0.10;;
12884;SDS011;6510;51.362;7.370;2023-08-21T05:21:45;0.03;;;0.03;;
12884;SDS011;6510;51.362;7.370;2023-08-21T05:24:11;0.00;;;0.00;;
12884;SDS011;6510;51.362;7.370;2023-08-21T05:26:37;0.00;;;0.00;;
12884;SDS011;6510;51.362;7.370;2023-08-21T05:29:03;0.03;;;0.03;;
12884;SDS011;6510;51.362;7.370;2023-08-21T05:31:29;0.10;;;0.10;;
12884;SDS011;6510;51.362;7.370;2023-08-21T05:33:55;0.00;;;0.00;;
12884;SDS011;6510;51.362;7.370;2023-08-21T05:36:20;0.10;;;0.10;;
12884;SDS011;6510;51.362;7.370;2023-08-21T05:38:46;0.00;;;0.00;;
12884;SDS011;6510;51.362;7.370;2023-08-21T05:41:13;0.08;;;0.08;;
12884;SDS011;6510;51.362;7.370;2023-08-21T05:43:42;0.10;;;0.10;;
12884;SDS011;6510;51.362;7.370;2023-08-21T05:46:08;0.20;;;0.20;;
12884;SDS011;6510;51.362;7.370;2023-08-21T05:48:34;0.10;;;0.10;;
12884;SDS011;6510;51.362;7.370;2023-08-21T05:50:59;0.20;;;0.20;;
12884;SDS011;6510;51.362;7.370;2023-08-21T05:53:25;0.10;;;0.10;;
12884;SDS011;6510;51.362;7.370;2023-08-21T05:55:52;0.10;;;0.10;;
12884;SDS011;6510;51.362;7.370;2023-08-21T05:58:19;0.10;;;0.10;;
12884;SDS011;6510;51.362;7.370;2023-08-21T06:00:44;0.20;;;0.20;;
12884;SDS011;6510;51.362;7.370;2023-08-21T06:03:11;0.30;;;0.30;;
12884;SDS011;6510;51.362;7.370;2023-08-21T06:05:37;0.20;;;0.20;;
12884;SDS011;6510;51.362;7.370;2023-08-21T06:08:02;0.30;;;0.30;;
12884;SDS011;6510;51.362;7.370;2023-08-21T06:10:28;0.22;;;0.22;;
12884;SDS011;6510;51.362;7.370;2023-08-21T06:12:55;0.20;;;0.20;;
12884;SDS011;6510;51.362;7.370;2023-08-21T06:15:21;0.20;;;0.20;;
12884;SDS011;6510;51.362;7.370;2023-08-21T06:17:46;0.20;;;0.20;;
12884;SDS011;6510;51.362;7.370;2023-08-21T06:20:12;0.10;;;0.10;;
12884;SDS011;6510;51.362;7.370;2023-08-21T06:22:39;0.10;;;0.10;;
12884;SDS011;6510;51.362;7.370;2023-08-21T06:25:05;0.20;;;0.20;;
12884;SDS011;6510;51.362;7.370;2023-08-21T06:27:30;0.20;;;0.20;;
12884;SDS011;6510;51.362;7.370;2023-08-21T06:29:56;0.20;;;0.20;;
12884;SDS011;6510;51.362;7.370;2023-08-21T06:32:22;0.10;;;0.10;;
12884;SDS011;6510;51.362;7.370;2023-08-21T06:34:47;0.30;;;0.30;;
12884;SDS011;6510;51.362;7.370;2023-08-21T06:37:13;0.20;;;0.20;;
12884;SDS011;6510;51.362;7.370;2023-08-21T06:39:39;0.20;;;0.20;;
12884;SDS011;6510;51.362;7.370;2023-08-21T06:42:04;0.20;;;0.20;;
12884;SDS011;6510;51.362;7.370;2023-08-21T06:44:30;0.13;;;0.13;;
12884;SDS011;6510;51.362;7.370;2023-08-21T06:46:56;0.20;;;0.20;;
12884;SDS011;6510;51.362;7.370;2023-08-21T06:49:21;0.20;;;0.20;;
12884;SDS011;6510;51.362;7.370;2023-08-21T06:51:48;0.30;;;0.30;;
12884;SDS011;6510;51.362;7.370;2023-08-21T06:54:14;0.30;;;0.30;;
12884;SDS011;6510;51.362;7.370;2023-08-21T06:56:39;0.40;;;0.40;;
12884;SDS011;6510;51.362;7.370;2023-08-21T06:59:05;0.50;;;0.50;;
12884;SDS011;6510;51.362;7.370;2023-08-21T07:01:30;0.30;;;0.30;;
12884;SDS011;6510;51.362;7.370;2023-08-21T07:03:56;0.40;;;0.40;;
12884;SDS011;6510;51.362;7.370;2023-08-21T07:06:22;0.35;;;0.35;;
12884;SDS011;6510;51.362;7.370;2023-08-21T07:08:47;0.50;;;0.50;;
12884;SDS011;6510;51.362;7.370;2023-08-21T07:11:13;0.40;;;0.40;;
12884;SDS011;6510;51.362;7.370;2023-08-21T07:13:39;0.40;;;0.40;;
12884;SDS011;6510;51.362;7.370;2023-08-21T07:16:05;0.50;;;0.50;;
12884;SDS011;6510;51.362;7.370;2023-08-21T07:18:34;0.40;;;0.40;;
12884;SDS011;6510;51.362;7.370;2023-08-21T07:21:01;0.47;;;0.47;;
12884;SDS011;6510;51.362;7.370;2023-08-21T07:23:29;0.50;;;0.50;;
12884;SDS011;6510;51.362;7.370;2023-08-21T07:25:55;0.60;;;0.60;;
12884;SDS011;6510;51.362;7.370;2023-08-21T07:28:22;0.45;;;0.45;;
12884;SDS011;6510;51.362;7.370;2023-08-21T07:30:48;0.50;;;0.50;;
12884;SDS011;6510;51.362;7.370;2023-08-21T07:33:13;0.40;;;0.40;;
12884;SDS011;6510;51.362;7.370;2023-08-21T07:35:39;0.40;;;0.40;;
12884;SDS011;6510;51.362;7.370;2023-08-21T07:38:04;0.50;;;0.50;;
12884;SDS011;6510;51.362;7.370;2023-08-21T07:40:30;0.40;;;0.40;;
12884;SDS011;6510;51.362;7.370;2023-08-21T07:42:56;0.50;;;0.50;;
12884;SDS011;6510;51.362;7.370;2023-08-21T07:45:22;0.40;;;0.40;;
12884;SDS011;6510;51.362;7.370;2023-08-21T07:47:47;0.45;;;0.45;;
12884;SDS011;6510;51.362;7.370;2023-08-21T07:50:13;0.30;;;0.30;;
12884;SDS011;6510;51.362;7.370;2023-08-21T07:52:39;0.40;;;0.40;;
12884;SDS011;6510;51.362;7.370;2023-08-21T07:55:05;0.43;;;0.43;;
12884;SDS011;6510;51.362;7.370;2023-08-21T07:57:31;0.32;;;0.32;;
12884;SDS011;6510;51.362;7.370;2023-08-21T07:59:57;0.50;;;0.50;;
12884;SDS011;6510;51.362;7.370;2023-08-21T08:02:23;0.57;;;0.57;;
12884;SDS011;6510;51.362;7.370;2023-08-21T08:04:48;0.68;;;0.68;;
12884;SDS011;6510;51.362;7.370;2023-08-21T08:07:14;0.75;;;0.75;;
12884;SDS011;6510;51.362;7.370;2023-08-21T08:09:39;0.60;;;0.60;;
12884;SDS011;6510;51.362;7.370;2023-08-21T08:12:06;0.52;;;0.52;;
12884;SDS011;6510;51.362;7.370;2023-08-21T08:14:32;0.50;;;0.50;;
12884;SDS011;6510;51.362;7.370;2023-08-21T08:16:57;0.40;;;0.40;;
12884;SDS011;6510;51.362;7.370;2023-08-21T08:19:23;0.30;;;0.30;;
12884;SDS011;6510;51.362;7.370;2023-08-21T08:21:51;0.38;;;0.38;;
12884;SDS011;6510;51.362;7.370;2023-08-21T08:24:16;0.35;;;0.35;;
12884;SDS011;6510;51.362;7.370;2023-08-21T08:26:42;0.30;;;0.30;;
12884;SDS011;6510;51.362;7.370;2023-08-21T08:29:08;0.32;;;0.32;;
12884;SDS011;6510;51.362;7.370;2023-08-21T08:31:34;0.45;;;0.45;;
12884;SDS011;6510;51.362;7.370;2023-08-21T08:33:59;0.40;;;0.40;;
12884;SDS011;6510;51.362;7.370;2023-08-21T08:36:25;0.60;;;0.60;;
12884;SDS011;6510;51.362;7.370;2023-08-21T08:38:51;0.60;;;0.60;;
12884;SDS011;6510;51.362;7.370;2023-08-21T08:41:20;0.60;;;0.60;;
12884;SDS011;6510;51.362;7.370;2023-08-21T08:43:57;0.73;;;0.73;;
12884;SDS011;6510;51.362;7.370;2023-08-21T08:46:25;0.80;;;0.80;;
12884;SDS011;6510;51.362;7.370;2023-08-21T08:48:56;0.70;;;0.70;;
12884;SDS011;6510;51.362;7.370;2023-08-21T08:51:22;0.80;;;0.80;;
12884;SDS011;6510;51.362;7.370;2023-08-21T08:53:53;0.93;;;0.93;;
12884;SDS011;6510;51.362;7.370;2023-08-21T08:56:19;0.60;;;0.60;;
12884;SDS011;6510;51.362;7.370;2023-08-21T08:58:47;0.80;;;0.80;;
12884;SDS011;6510;51.362;7.370;2023-08-21T09:01:13;1.00;;;1.00;;
12884;SDS011;6510;51.362;7.370;2023-08-21T09:03:39;0.80;;;0.80;;
12884;SDS011;6510;51.362;7.370;2023-08-21T09:06:08;0.70;;;0.70;;
12884;SDS011;6510;51.362;7.370;2023-08-21T09:08:36;1.00;;;1.00;;
12884;SDS011;6510;51.362;7.370;2023-08-21T09:11:02;1.05;;;1.05;;
12884;SDS011;6510;51.362;7.370;2023-08-21T09:13:30;1.05;;;1.05;;
12884;SDS011;6510;51.362;7.370;2023-08-21T09:15:56;0.93;;;0.93;;
12884;SDS011;6510;51.362;7.370;2023-08-21T09:18:23;1.00;;;1.00;;
12884;SDS011;6510;51.362;7.370;2023-08-21T09:20:49;0.93;;;0.93;;
12884;SDS011;6510;51.362;7.370;2023-08-21T09:23:15;0.90;;;0.90;;
12884;SDS011;6510;51.362;7.370;2023-08-21T09:25:43;1.00;;;1.00;;
12884;SDS011;6510;51.362;7.370;2023-08-21T09:28:11;1.05;;;1.05;;
12884;SDS011;6510;51.362;7.370;2023-08-21T09:30:44;1.02;;;1.02;;
12884;SDS011;6510;51.362;7.370;2023-08-21T09:33:11;1.00;;;1.00;;
12884;SDS011;6510;51.362;7.370;2023-08-21T09:35:37;1.08;;;1.08;;
12884;SDS011;6510;51.362;7.370;2023-08-21T09:38:02;1.10;;;1.10;;
12884;SDS011;6510;51.362;7.370;2023-08-21T09:40:28;1.20;;;1.20;;
12884;SDS011;6510;51.362;7.370;2023-08-21T09:42:54;1.00;;;1.00;;
12884;SDS011;6510;51.362;7.370;2023-08-21T09:45:24;0.88;;;0.88;;
12884;SDS011;6510;51.362;7.370;2023-08-21T09:47:51;1.15;;;1.15;;
12884;SDS011;6510;51.362;7.370;2023-08-21T09:50:18;1.10;;;1.10;;
12884;SDS011;6510;51.362;7.370;2023-08-21T09:52:44;1.10;;;1.10;;
12884;SDS011;6510;51.362;7.370;2023-08-21T09:55:12;1.20;;;1.20;;
12884;SDS011;6510;51.362;7.370;2023-08-21T09:57:39;1.13;;;1.13;;
12884;SDS011;6510;51.362;7.370;2023-08-21T10:00:06;1.23;;;1.23;;
12884;SDS011;6510;51.362;7.370;2023-08-21T10:02:43;1.27;;;1.27;;
12884;SDS011;6510;51.362;7.370;2023-08-21T10:05:15;1.17;;;1.17;;
12884;SDS011;6510;51.362;7.370;2023-08-21T10:07:41;1.13;;;1.13;;
12884;SDS011;6510;51.362;7.370;2023-08-21T10:10:12;1.00;;;1.00;;
12884;SDS011;6510;51.362;7.370;2023-08-21T10:12:39;1.00;;;1.00;;
12884;SDS011;6510;51.362;7.370;2023-08-21T10:15:05;0.95;;;0.95;;
12884;SDS011;6510;51.362;7.370;2023-08-21T10:17:32;1.13;;;1.13;;
12884;SDS011;6510;51.362;7.370;2023-08-21T10:20:07;0.93;;;0.93;;
12884;SDS011;6510;51.362;7.370;2023-08-21T10:25:14;1.20;;;1.20;;
12884;SDS011;6510;51.362;7.370;2023-08-21T10:27:41;0.98;;;0.98;;
12884;SDS011;6510;51.362;7.370;2023-08-21T10:30:14;1.00;;;1.00;;
12884;SDS011;6510;51.362;7.370;2023-08-21T10:32:45;1.00;;;1.00;;
12884;SDS011;6510;51.362;7.370;2023-08-21T10:35:15;1.05;;;1.05;;
12884;SDS011;6510;51.362;7.370;2023-08-21T10:38:05;1.13;;;1.13;;
12884;SDS011;6510;51.362;7.370;2023-08-21T10:40:34;1.20;;;1.20;;
12884;SDS011;6510;51.362;7.370;2023-08-21T10:43:00;1.40;;;1.40;;
12884;SDS011;6510;51.362;7.370;2023-08-21T10:45:28;1.20;;;1.20;;
12884;SDS011;6510;51.362;7.370;2023-08-21T10:47:57;1.02;;;1.02;;
12884;SDS011;6510;51.362;7.370;2023-08-21T10:50:26;1.00;;;1.00;;
12884;SDS011;6510;51.362;7.370;2023-08-21T10:52:52;0.90;;;0.90;;
12884;SDS011;6510;51.362;7.370;2023-08-21T10:55:18;0.90;;;0.90;;
12884;SDS011;6510;51.362;7.370;2023-08-21T10:57:48;1.00;;;1.00;;
12884;SDS011;6510;51.362;7.370;2023-08-21T11:00:15;0.90;;;0.90;;
12884;SDS011;6510;51.362;7.370;2023-08-21T11:02:43;0.70;;;0.70;;
12884;SDS011;6510;51.362;7.370;2023-08-21T11:05:10;0.98;;;0.98;;
12884;SDS011;6510;51.362;7.370;2023-08-21T11:07:41;0.63;;;0.63;;
12884;SDS011;6510;51.362;7.370;2023-08-21T11:10:12;0.80;;;0.80;;
12884;SDS011;6510;51.362;7.370;2023-08-21T11:12:55;0.77;;;0.77;;
12884;SDS011;6510;51.362;7.370;2023-08-21T11:15:23;0.65;;;0.65;;
12884;SDS011;6510;51.362;7.370;2023-08-21T11:17:54;0.80;;;0.80;;
12884;SDS011;6510;51.362;7.370;2023-08-21T11:20:20;0.85;;;0.85;;
12884;SDS011;6510;51.362;7.370;2023-08-21T11:22:46;0.88;;;0.88;;
12884;SDS011;6510;51.362;7.370;2023-08-21T11:25:11;0.80;;;0.80;;
12884;SDS011;6510;51.362;7.370;2023-08-21T11:27:39;0.77;;;0.77;;
12884;SDS011;6510;51.362;7.370;2023-08-21T11:30:05;1.10;;;1.10;;
12884;SDS011;6510;51.362;7.370;2023-08-21T11:32:31;0.80;;;0.80;;
12884;SDS011;6510;51.362;7.370;2023-08-21T11:34:56;0.80;;;0.80;;
12884;SDS011;6510;51.362;7.370;2023-08-21T11:37:23;0.90;;;0.90;;
12884;SDS011;6510;51.362;7.370;2023-08-21T11:39:53;1.00;;;1.00;;
12884;SDS011;6510;51.362;7.370;2023-08-21T11:42:21;1.00;;;1.00;;
12884;SDS011;6510;51.362;7.370;2023-08-21T11:44:53;1.05;;;1.05;;
12884;SDS011;6510;51.362;7.370;2023-08-21T11:47:21;0.88;;;0.88;;
12884;SDS011;6510;51.362;7.370;2023-08-21T11:49:48;1.05;;;1.05;;
12884;SDS011;6510;51.362;7.370;2023-08-21T11:52:22;0.98;;;0.98;;
12884;SDS011;6510;51.362;7.370;2023-08-21T11:54:51;1.10;;;1.10;;
12884;SDS011;6510;51.362;7.370;2023-08-21T11:57:19;1.00;;;1.00;;
12884;SDS011;6510;51.362;7.370;2023-08-21T11:59:52;1.02;;;1.02;;
12884;SDS011;6510;51.362;7.370;2023-08-21T12:02:21;1.13;;;1.13;;
12884;SDS011;6510;51.362;7.370;2023-08-21T12:04:52;1.00;;;1.00;;
12884;SDS011;6510;51.362;7.370;2023-08-21T12:07:19;0.93;;;0.93;;
12884;SDS011;6510;51.362;7.370;2023-08-21T12:09:48;1.10;;;1.10;;
12884;SDS011;6510;51.362;7.370;2023-08-21T12:12:14;1.20;;;1.20;;
12884;SDS011;6510;51.362;7.370;2023-08-21T12:14:40;1.10;;;1.10;;
12884;SDS011;6510;51.362;7.370;2023-08-21T12:17:05;1.10;;;1.10;;
12884;SDS011;6510;51.362;7.370;2023-08-21T12:19:32;1.00;;;1.00;;
12884;SDS011;6510;51.362;7.370;2023-08-21T12:21:58;1.00;;;1.00;;
12884;SDS011;6510;51.362;7.370;2023-08-21T12:24:23;1.10;;;1.10;;
12884;SDS011;6510;51.362;7.370;2023-08-21T12:26:49;1.10;;;1.10;;
12884;SDS011;6510;51.362;7.370;2023-08-21T12:29:15;1.00;;;1.00;;
12884;SDS011;6510;51.362;7.370;2023-08-21T12:31:40;1.20;;;1.20;;
12884;SDS011;6510;51.362;7.370;2023-08-21T12:34:09;1.00;;;1.00;;
12884;SDS011;6510;51.362;7.370;2023-08-21T12:36:35;1.10;;;1.10;;
12884;SDS011;6510;51.362;7.370;2023-08-21T12:39:02;0.90;;;0.90;;
12884;SDS011;6510;51.362;7.370;2023-08-21T12:41:28;0.90;;;0.90;;
12884;SDS011;6510;51.362;7.370;2023-08-21T12:43:54;0.90;;;0.90;;
12884;SDS011;6510;51.362;7.370;2023-08-21T12:46:20;1.00;;;1.00;;
12884;SDS011;6510;51.362;7.370;2023-08-21T12:48:46;1.00;;;1.00;;
12884;SDS011;6510;51.362;7.370;2023-08-21T12:51:11;0.93;;;0.93;;
12884;SDS011;6510;51.362;7.370;2023-08-21T12:53:37;1.13;;;1.13;;
12884;SDS011;6510;51.362;7.370;2023-08-21T12:56:03;1.10;;;1.10;;
12884;SDS011;6510;51.362;7.370;2023-08-21T12:58:29;1.10;;;1.10;;
12884;SDS011;6510;51.362;7.370;2023-08-21T13:00:54;0.90;;;0.90;;
12884;SDS011;6510;51.362;7.370;2023-08-21T13:03:20;0.85;;;0.85;;
12884;SDS011;6510;51.362;7.370;2023-08-21T13:05:46;1.00;;;1.00;;
12884;SDS011;6510;51.362;7.370;2023-08-21T13:08:11;1.00;;;1.00;;
12884;SDS011;6510;51.362;7.370;2023-08-21T13:10:37;1.10;;;1.10;;
12884;SDS011;6510;51.362;7.370;2023-08-21T13:13:03;0.80;;;0.80;;
12884;SDS011;6510;51.362;7.370;2023-08-21T13:15:28;1.05;;;1.05;;
12884;SDS011;6510;51.362;7.370;2023-08-21T13:17:54;0.90;;;0.90;;
12884;SDS011;6510;51.362;7.370;2023-08-21T13:20:20;1.00;;;1.00;;
12884;SDS011;6510;51.362;7.370;2023-08-21T13:22:49;0.98;;;0.98;;
12884;SDS011;6510;51.362;7.370;2023-08-21T13:25:20;0.80;;;0.80;;
12884;SDS011;6510;51.362;7.370;2023-08-21T13:27:47;1.00;;;1.00;;
12884;SDS011;6510;51.362;7.370;2023-08-21T13:30:14;0.90;;;0.90;;
12884;SDS011;6510;51.362;7.370;2023-08-21T13:32:40;0.80;;;0.80;;
12884;SDS011;6510;51.362;7.370;2023-08-21T13:35:06;0.90;;;0.90;;
12884;SDS011;6510;51.362;7.370;2023-08-21T13:37:33;0.60;;;0.60;;
12884;SDS011;6510;51.362;7.370;2023-08-21T13:39:59;0.70;;;0.70;;
12884;SDS011;6510;51.362;7.370;2023-08-21T13:42:26;0.75;;;0.75;;
12884;SDS011;6510;51.362;7.370;2023-08-21T13:44:55;0.73;;;0.73;;
12884;SDS011;6510;51.362;7.370;2023-08-21T13:47:22;0.70;;;0.70;;
12884;SDS011;6510;51.362;7.370;2023-08-21T13:49:47;0.80;;;0.80;;
12884;SDS011;6510;51.362;7.370;2023-08-21T13:52:13;0.63;;;0.63;;
12884;SDS011;6510;51.362;7.370;2023-08-21T13:54:39;0.70;;;0.70;;
12884;SDS011;6510;51.362;7.370;2023-08-21T13:57:04;0.73;;;0.73;;
12884;SDS011;6510;51.362;7.370;2023-08-21T13:59:30;0.50;;;0.50;;
12884;SDS011;6510;51.362;7.370;2023-08-21T14:01:55;0.80;;;0.80;;
12884;SDS011;6510;51.362;7.370;2023-08-21T14:04:21;0.80;;;0.80;;
12884;SDS011;6510;51.362;7.370;2023-08-21T14:06:47;0.90;;;0.90;;
12884;SDS011;6510;51.362;7.370;2023-08-21T14:09:12;0.90;;;0.90;;
12884;SDS011;6510;51.362;7.370;2023-08-21T14:11:38;0.70;;;0.70;;
12884;SDS011;6510;51.362;7.370;2023-08-21T14:14:03;0.85;;;0.85;;
12884;SDS011;6510;51.362;7.370;2023-08-21T14:16:29;0.70;;;0.70;;
12884;SDS011;6510;51.362;7.370;2023-08-21T14:18:55;0.80;;;0.80;;
12884;SDS011;6510;51.362;7.370;2023-08-21T14:21:20;0.80;;;0.80;;
12884;SDS011;6510;51.362;7.370;2023-08-21T14:23:46;0.70;;;0.70;;
12884;SDS011;6510;51.362;7.370;2023-08-21T14:26:11;0.60;;;0.60;;
12884;SDS011;6510;51.362;7.370;2023-08-21T14:28:37;0.63;;;0.63;;
12884;SDS011;6510;51.362;7.370;2023-08-21T14:31:05;0.55;;;0.55;;
12884;SDS011;6510;51.362;7.370;2023-08-21T14:33:31;0.50;;;0.50;;
12884;SDS011;6510;51.362;7.370;2023-08-21T14:35:56;0.47;;;0.47;;
12884;SDS011;6510;51.362;7.370;2023-08-21T14:38:22;0.60;;;0.60;;
12884;SDS011;6510;51.362;7.370;2023-08-21T14:40:48;0.40;;;0.40;;
12884;SDS011;6510;51.362;7.370;2023-08-21T14:43:14;0.60;;;0.60;;
12884;SDS011;6510;51.362;7.370;2023-08-21T14:45:39;0.50;;;0.50;;
12884;SDS011;6510;51.362;7.370;2023-08-21T14:48:05;0.50;;;0.50;;
12884;SDS011;6510;51.362;7.370;2023-08-21T14:50:31;0.40;;;0.40;;
12884;SDS011;6510;51.362;7.370;2023-08-21T14:52:56;0.50;;;0.50;;
12884;SDS011;6510;51.362;7.370;2023-08-21T14:55:22;0.50;;;0.50;;
12884;SDS011;6510;51.362;7.370;2023-08-21T14:57:47;0.40;;;0.40;;
12884;SDS011;6510;51.362;7.370;2023-08-21T15:00:13;0.40;;;0.40;;
12884;SDS011;6510;51.362;7.370;2023-08-21T15:02:41;0.40;;;0.40;;
12884;SDS011;6510;51.362;7.370;2023-08-21T15:05:07;0.30;;;0.30;;